createdAt,value
2023-01-17T00:02:05.781Z,97228.88
2023-01-17T00:04:51.436Z,97227.38
2023-01-17T00:07:40.284Z,97209.44
2023-01-17T00:10:10.631Z,97207.44
2023-01-17T00:12:39.381Z,97194.41
2023-01-17T00:15:08.912Z,97193.28
2023-01-17T00:17:36.924Z,97213.94
2023-01-17T00:20:22.861Z,97202.75
2023-01-17T00:23:09.663Z,97206.97
2023-01-17T00:25:57.161Z,97198.34
2023-01-17T00:28:24.646Z,97192.13
2023-01-17T00:30:51.860Z,97196.88
2023-01-17T00:33:19.158Z,97208.41
2023-01-17T00:35:46.040Z,97204.31
2023-01-17T00:38:16.146Z,97186.09
2023-01-17T00:40:44.787Z,97193.47
2023-01-17T00:43:32.429Z,97218.03
2023-01-17T00:46:18.118Z,97218.88
2023-01-17T00:49:04.135Z,97216.84
2023-01-17T00:51:51.134Z,97215.53
2023-01-17T00:54:38.362Z,97230.28
2023-01-17T00:57:24.636Z,97222.09
2023-01-17T01:00:10.460Z,97264.66
2023-01-17T01:02:56.154Z,97291.22
2023-01-17T01:05:42.528Z,97289.56
2023-01-17T01:08:39.936Z,97334.09
2023-01-17T01:11:28.959Z,97335.06
2023-01-17T01:14:15.059Z,97339.38
2023-01-17T01:17:00.593Z,97345.88
2023-01-17T01:19:46.107Z,97357.81
2023-01-17T01:22:32.071Z,97366.56
2023-01-17T01:25:17.549Z,97370.94
2023-01-17T01:28:04.770Z,97402.78
2023-01-17T01:30:50.762Z,97391.00
2023-01-17T01:33:20.985Z,97405.03
2023-01-17T01:35:50.881Z,97402.63
2023-01-17T01:38:19.956Z,97394.69
2023-01-17T01:40:50.083Z,97392.47
2023-01-17T01:43:21.225Z,97379.78
2023-01-17T01:45:54.032Z,97384.09
2023-01-17T01:48:36.525Z,97388.84
2023-01-17T01:51:09.774Z,97382.25
2023-01-17T01:53:41.697Z,97373.91
2023-01-17T01:56:13.543Z,97360.50
2023-01-17T01:58:46.845Z,97321.97
2023-01-17T02:01:16.136Z,97315.91
2023-01-17T02:03:45.479Z,97313.41
2023-01-17T02:06:26.468Z,97290.66
2023-01-17T02:08:55.059Z,97278.16
2023-01-17T02:11:23.783Z,97272.81
2023-01-17T02:13:53.083Z,97273.06
2023-01-17T02:16:43.957Z,97238.66
2023-01-17T02:19:38.205Z,97208.13
2023-01-17T02:22:31.254Z,97194.28
2023-01-17T02:25:15.899Z,97200.38
2023-01-17T02:28:00.289Z,97219.34
2023-01-17T02:30:38.226Z,97263.28
2023-01-17T02:33:26.329Z,97269.88
2023-01-17T02:36:05.303Z,97256.44
2023-01-17T02:38:41.237Z,97258.06
2023-01-17T02:41:16.760Z,97257.69
2023-01-17T02:43:45.156Z,97257.31
2023-01-17T02:46:14.743Z,97258.94
2023-01-17T02:48:43.499Z,97273.72
2023-01-17T02:51:26.795Z,97252.81
2023-01-17T02:54:12.209Z,97253.81
2023-01-17T02:56:50.693Z,97244.25
2023-01-17T02:59:34.549Z,97256.34
2023-01-17T03:02:12.532Z,97259.59
2023-01-17T03:04:48.230Z,97258.19
2023-01-17T03:07:18.771Z,97259.03
2023-01-17T03:09:49.516Z,97253.72
2023-01-17T03:12:17.436Z,97220.59
2023-01-17T03:14:45.581Z,97220.88
2023-01-17T03:17:15.477Z,97201.22
2023-01-17T03:19:43.405Z,97183.81
2023-01-17T03:22:11.332Z,97156.00
2023-01-17T03:24:39.659Z,97137.19
2023-01-17T03:27:07.642Z,97150.50
2023-01-17T03:29:36.141Z,97152.34
2023-01-17T03:32:04.099Z,97161.34
2023-01-17T03:34:33.548Z,97160.75
2023-01-17T03:37:01.563Z,97173.41
2023-01-17T03:39:29.526Z,97161.09
2023-01-17T03:41:57.489Z,97163.38
2023-01-17T03:44:25.423Z,97151.91
2023-01-17T03:46:53.552Z,97133.91
2023-01-17T03:49:21.496Z,97085.69
2023-01-17T03:51:50.904Z,97061.09
2023-01-17T03:54:18.897Z,97068.72
2023-01-17T03:56:46.884Z,97089.56
2023-01-17T03:59:14.959Z,97118.59
2023-01-17T04:01:43.077Z,97117.16
2023-01-17T04:04:11.149Z,97103.88
2023-01-17T04:06:39.424Z,97091.00
2023-01-17T04:09:09.079Z,97087.53
2023-01-17T04:11:37.105Z,97102.63
2023-01-17T04:14:05.154Z,97139.63
2023-01-17T04:16:33.469Z,97143.34
2023-01-17T04:19:01.460Z,97157.47
2023-01-17T04:21:29.435Z,97130.69
2023-01-17T04:23:57.444Z,97114.28
2023-01-17T04:26:26.777Z,97108.16
2023-01-17T04:28:54.765Z,97097.13
2023-01-17T04:31:22.770Z,97099.56
2023-01-17T04:33:50.935Z,97110.63
2023-01-17T04:36:19.169Z,97116.56
2023-01-17T04:38:47.161Z,97125.72
2023-01-17T04:41:15.154Z,97106.50
2023-01-17T04:43:44.656Z,97100.34
2023-01-17T04:46:12.707Z,97094.41
2023-01-17T04:48:40.948Z,97104.03
2023-01-17T04:51:09.052Z,97101.56
2023-01-17T04:53:37.073Z,97087.28
2023-01-17T04:56:05.716Z,97102.16
2023-01-17T04:58:34.211Z,97098.09
2023-01-17T05:01:04.652Z,97109.34
2023-01-17T05:03:33.176Z,97095.81
2023-01-17T05:06:01.543Z,97055.75
2023-01-17T05:08:29.638Z,97074.44
2023-01-17T05:10:57.643Z,97074.22
2023-01-17T05:13:25.648Z,97084.00
2023-01-17T05:15:53.751Z,97084.59
2023-01-17T05:18:23.311Z,97101.63
2023-01-17T05:20:51.268Z,97090.38
2023-01-17T05:23:19.250Z,97129.44
2023-01-17T05:25:47.252Z,97162.16
2023-01-17T05:28:15.484Z,97202.81
2023-01-17T05:30:43.711Z,97129.41
2023-01-17T05:33:11.811Z,97136.53
2023-01-17T05:35:41.229Z,97186.56
2023-01-17T05:38:09.253Z,97190.00
2023-01-17T05:40:37.351Z,97225.66
2023-01-17T05:43:05.555Z,97256.00
2023-01-17T05:45:34.821Z,97316.84
2023-01-17T05:48:03.460Z,97335.75
2023-01-17T05:50:33.990Z,97359.69
2023-01-17T05:53:05.697Z,97334.91
2023-01-17T05:55:34.570Z,97325.22
2023-01-17T05:58:03.289Z,97343.28
2023-01-17T06:00:32.337Z,97343.94
2023-01-17T06:03:01.751Z,97348.72
2023-01-17T06:05:30.525Z,97337.72
2023-01-17T06:07:58.943Z,97339.63
2023-01-17T06:10:29.541Z,97328.44
2023-01-17T06:13:05.556Z,97325.50
2023-01-17T06:15:36.964Z,97332.38
2023-01-17T06:18:06.788Z,97333.09
2023-01-17T06:20:35.205Z,97348.31
2023-01-17T06:23:04.492Z,97346.72
2023-01-17T06:25:37.955Z,97355.41
2023-01-17T06:28:06.943Z,97357.91
2023-01-17T06:30:35.583Z,97358.09
2023-01-17T06:33:03.924Z,97348.69
2023-01-17T06:35:32.100Z,97340.50
2023-01-17T06:38:00.628Z,97329.66
2023-01-17T06:40:30.012Z,97337.84
2023-01-17T06:43:02.835Z,97338.59
2023-01-17T06:45:32.065Z,97338.03
2023-01-17T06:48:01.348Z,97340.13
2023-01-17T06:50:29.424Z,97355.13
2023-01-17T06:52:59.244Z,97369.00
2023-01-17T06:55:28.936Z,97363.31
2023-01-17T06:57:58.616Z,97368.91
2023-01-17T07:00:29.531Z,97367.75
2023-01-17T07:02:57.650Z,97364.91
2023-01-17T07:05:25.791Z,97349.22
2023-01-17T07:07:53.789Z,97351.16
2023-01-17T07:10:23.679Z,97338.16
2023-01-17T07:12:51.799Z,97357.63
2023-01-17T07:15:19.768Z,97374.66
2023-01-17T07:17:49.103Z,97388.97
2023-01-17T07:20:17.567Z,97411.47
2023-01-17T07:22:46.419Z,97417.47
2023-01-17T07:25:14.482Z,97457.94
2023-01-17T07:27:42.516Z,97438.63
2023-01-17T07:30:11.800Z,97454.38
2023-01-17T07:32:39.988Z,97480.59
2023-01-17T07:35:10.397Z,97498.72
2023-01-17T07:37:39.182Z,97489.03
2023-01-17T07:40:08.209Z,97475.50
2023-01-17T07:42:36.205Z,97448.47
2023-01-17T07:45:04.387Z,97440.25
2023-01-17T07:47:35.238Z,97457.59
2023-01-17T07:50:03.504Z,97459.44
2023-01-17T07:52:32.917Z,97478.88
2023-01-17T07:55:01.044Z,97485.56
2023-01-17T07:57:29.433Z,97479.72
2023-01-17T07:59:57.393Z,97483.91
2023-01-17T08:02:25.454Z,97502.44
2023-01-17T08:04:53.420Z,97493.97
2023-01-17T08:07:21.495Z,97504.81
2023-01-17T08:09:50.806Z,97503.63
2023-01-17T08:12:18.918Z,97510.50
2023-01-17T08:14:46.980Z,97502.66
2023-01-17T08:17:17.121Z,97509.75
2023-01-17T08:19:46.006Z,97510.88
2023-01-17T08:22:13.972Z,97509.50
2023-01-17T08:24:42.007Z,97504.78
2023-01-17T08:27:11.724Z,97511.34
2023-01-17T08:29:42.217Z,97514.34
2023-01-17T08:32:12.447Z,97504.56
2023-01-17T08:34:40.433Z,97517.69
2023-01-17T08:37:08.559Z,97506.88
2023-01-17T08:39:36.534Z,97508.00
2023-01-17T08:42:04.577Z,97512.59
2023-01-17T08:44:34.271Z,97507.44
2023-01-17T08:47:02.633Z,97501.06
2023-01-17T08:49:30.615Z,97530.06
2023-01-17T08:51:58.701Z,97535.88
2023-01-17T08:54:26.669Z,97528.03
2023-01-17T08:56:55.746Z,97542.91
2023-01-17T08:59:24.100Z,97548.31
2023-01-17T09:01:58.297Z,97558.78
2023-01-17T09:04:26.565Z,97583.00
2023-01-17T09:06:54.600Z,97580.16
2023-01-17T09:09:22.540Z,97590.88
2023-01-17T09:11:50.496Z,97609.31
2023-01-17T09:14:21.210Z,97603.34
2023-01-17T09:16:49.648Z,97637.78
2023-01-17T09:19:19.220Z,97629.25
2023-01-17T09:21:47.250Z,97634.13
2023-01-17T09:24:15.439Z,97608.50
2023-01-17T09:26:43.572Z,97618.00
2023-01-17T09:29:12.685Z,97609.63
2023-01-17T09:31:41.683Z,97613.56
2023-01-17T09:34:09.717Z,97618.47
2023-01-17T09:36:39.070Z,97609.88
2023-01-17T09:39:08.219Z,97606.38
2023-01-17T09:41:42.337Z,97599.97
2023-01-17T09:44:24.512Z,97604.28
2023-01-17T09:46:55.360Z,97597.13
2023-01-17T09:49:34.477Z,97589.28
2023-01-17T09:52:05.407Z,97585.84
2023-01-17T09:54:36.824Z,97589.44
2023-01-17T09:57:14.622Z,97584.59
2023-01-17T10:00:02.571Z,97590.97
2023-01-17T10:02:53.139Z,97579.28
2023-01-17T10:05:35.074Z,97573.53
2023-01-17T10:08:17.990Z,97583.53
2023-01-17T10:11:00.983Z,97591.69
2023-01-17T10:13:42.767Z,97594.31
2023-01-17T10:16:25.460Z,97601.34
2023-01-17T10:19:15.645Z,97589.50
2023-01-17T10:22:02.309Z,97601.56
2023-01-17T10:24:59.993Z,97613.41
2023-01-17T10:27:34.018Z,97605.66
2023-01-17T10:30:05.004Z,97627.22
2023-01-17T10:32:35.424Z,97658.78
2023-01-17T10:35:09.366Z,97664.72
2023-01-17T10:37:41.798Z,97662.00
2023-01-17T10:40:21.883Z,97692.50
2023-01-17T10:42:55.594Z,97690.16
2023-01-17T10:45:28.899Z,97692.25
2023-01-17T10:48:04.521Z,97700.72
2023-01-17T10:50:42.959Z,97701.03
2023-01-17T10:53:17.279Z,97709.16
2023-01-17T10:55:53.535Z,97703.63
2023-01-17T10:58:21.611Z,97691.72
2023-01-17T11:00:54.224Z,97691.94
2023-01-17T11:03:23.899Z,97707.03
2023-01-17T11:06:17.036Z,97699.81
2023-01-17T11:08:52.494Z,97702.75
2023-01-17T11:11:24.513Z,97672.06
2023-01-17T11:13:54.414Z,97653.22
2023-01-17T11:16:27.421Z,97657.69
2023-01-17T11:19:09.561Z,97655.25
2023-01-17T11:21:40.951Z,97653.03
2023-01-17T11:24:19.356Z,97647.28
2023-01-17T11:26:50.669Z,97638.03
2023-01-17T11:29:33.058Z,97631.41
2023-01-17T11:32:28.577Z,97640.22
2023-01-17T11:35:15.352Z,97626.69
2023-01-17T11:37:49.989Z,97612.75
2023-01-17T11:40:25.053Z,97637.31
2023-01-17T11:43:20.703Z,97626.59
2023-01-17T11:46:02.603Z,97635.22
2023-01-17T11:48:36.728Z,97631.38
2023-01-17T11:51:13.905Z,97628.88
2023-01-17T11:53:48.125Z,97617.63
2023-01-17T11:56:23.554Z,97624.66
2023-01-17T11:58:53.108Z,97623.56
2023-01-17T12:01:34.973Z,97644.34
2023-01-17T12:04:20.992Z,97642.34
2023-01-17T12:07:08.134Z,97647.44
2023-01-17T12:09:44.826Z,97651.97
2023-01-17T12:12:39.063Z,97665.34
2023-01-17T12:15:20.641Z,97653.16
2023-01-17T12:18:05.863Z,97650.00
2023-01-17T12:20:43.689Z,97656.28
2023-01-17T12:23:28.448Z,97652.50
2023-01-17T12:26:19.648Z,97652.34
2023-01-17T12:29:30.012Z,97640.22
2023-01-17T12:32:15.332Z,97625.47
2023-01-17T12:34:51.823Z,97634.53
2023-01-17T12:37:25.069Z,97660.81
2023-01-17T12:39:56.160Z,97664.00
2023-01-17T12:42:27.091Z,97671.56
2023-01-17T12:45:02.868Z,97673.25
2023-01-17T12:47:36.641Z,97672.69
2023-01-17T12:50:12.714Z,97660.50
2023-01-17T12:52:54.357Z,97646.94
2023-01-17T12:55:34.772Z,97641.16
2023-01-17T12:58:05.582Z,97653.13
2023-01-17T13:00:39.367Z,97649.28
2023-01-17T13:03:27.328Z,97641.84
2023-01-17T13:05:58.693Z,97674.84
2023-01-17T13:08:34.346Z,97656.06
2023-01-17T13:11:07.606Z,97640.75
2023-01-17T13:13:36.399Z,97626.09
2023-01-17T13:16:09.025Z,97625.94
2023-01-17T13:18:43.831Z,97607.13
2023-01-17T13:21:29.570Z,97596.84
2023-01-17T13:24:17.120Z,97585.34
2023-01-17T13:26:58.854Z,97592.94
2023-01-17T13:29:35.851Z,97605.03
2023-01-17T13:32:15.911Z,97567.31
2023-01-17T13:35:12.531Z,97569.28
2023-01-17T13:38:01.645Z,97552.31
2023-01-17T13:40:35.201Z,97555.38
2023-01-17T13:43:05.551Z,97558.41
2023-01-17T13:45:35.251Z,97559.44
2023-01-17T13:48:31.949Z,97551.25
2023-01-17T13:51:03.611Z,97565.28
2023-01-17T13:53:49.236Z,97573.03
2023-01-17T13:56:35.295Z,97582.72
2023-01-17T13:59:06.053Z,97591.06
2023-01-17T14:01:53.772Z,97588.91
2023-01-17T14:04:23.454Z,97568.78
2023-01-17T14:06:57.983Z,97574.13
2023-01-17T14:09:30.519Z,97561.19
2023-01-17T14:12:02.162Z,97591.69
2023-01-17T14:14:48.889Z,97607.06
2023-01-17T14:17:58.072Z,97592.66
2023-01-17T14:20:52.337Z,97571.09
2023-01-17T14:23:50.096Z,97585.56
2023-01-17T14:26:36.589Z,97611.94
2023-01-17T14:29:41.727Z,97628.88
2023-01-17T14:32:12.541Z,97637.75
2023-01-17T14:34:40.948Z,97634.38
2023-01-17T14:37:19.584Z,97654.13
2023-01-17T14:39:51.909Z,97645.50
2023-01-17T14:42:22.825Z,97654.47
2023-01-17T14:44:53.638Z,97645.09
2023-01-17T14:47:22.513Z,97660.44
2023-01-17T14:49:50.630Z,97663.75
2023-01-17T14:52:19.428Z,97671.50
2023-01-17T14:54:53.285Z,97681.25
2023-01-17T14:57:27.967Z,97674.31
2023-01-17T15:00:14.915Z,97661.75
2023-01-17T15:02:44.893Z,97669.34
2023-01-17T15:05:16.289Z,97677.81
2023-01-17T15:07:47.099Z,97673.16
2023-01-17T15:10:18.796Z,97667.88
2023-01-17T15:12:47.822Z,97671.50
2023-01-17T15:15:35.398Z,97668.53
2023-01-17T15:18:18.117Z,97661.97
2023-01-17T15:20:52.487Z,97644.59
2023-01-17T15:23:22.773Z,97634.91
2023-01-17T15:25:54.900Z,97626.16
2023-01-17T15:28:23.129Z,97612.25
2023-01-17T15:31:13.463Z,97621.66
2023-01-17T15:33:43.883Z,97622.97
2023-01-17T15:36:24.419Z,97611.72
2023-01-17T15:38:57.951Z,97597.19
2023-01-17T15:41:31.076Z,97612.47
2023-01-17T15:43:59.120Z,97614.38
2023-01-17T15:46:33.017Z,97606.66
2023-01-17T15:49:09.481Z,97594.41
2023-01-17T15:51:41.598Z,97594.22
2023-01-17T15:54:25.292Z,97578.84
2023-01-17T15:57:05.797Z,97585.34
2023-01-17T15:59:45.500Z,97586.94
2023-01-17T16:02:33.643Z,97597.16
2023-01-17T16:05:03.717Z,97604.25
2023-01-17T16:07:36.577Z,97617.84
2023-01-17T16:10:13.572Z,97605.13
2023-01-17T16:12:43.150Z,97604.66
2023-01-17T16:15:13.482Z,97608.25
2023-01-17T16:17:45.572Z,97600.22
2023-01-17T16:20:20.389Z,97601.16
2023-01-17T16:22:49.130Z,97598.63
2023-01-17T16:25:19.595Z,97598.84
2023-01-17T16:27:49.911Z,97600.13
2023-01-17T16:30:21.607Z,97610.13
2023-01-17T16:32:50.711Z,97607.75
2023-01-17T16:35:21.229Z,97597.63
2023-01-17T16:37:50.936Z,97610.66
2023-01-17T16:40:19.813Z,97610.94
2023-01-17T16:42:50.293Z,97641.34
2023-01-17T16:45:19.338Z,97634.91
2023-01-17T16:47:49.484Z,97642.81
2023-01-17T16:50:22.363Z,97655.91
2023-01-17T16:52:50.443Z,97670.53
2023-01-17T16:55:21.998Z,97669.00
2023-01-17T16:57:52.404Z,97659.25
2023-01-17T17:00:22.704Z,97665.81
2023-01-17T17:02:51.141Z,97672.09
2023-01-17T17:05:19.406Z,97666.38
2023-01-17T17:07:50.754Z,97661.94
2023-01-17T17:10:25.276Z,97690.00
2023-01-17T17:12:54.895Z,97660.66
2023-01-17T17:15:22.880Z,97674.69
2023-01-17T17:17:51.301Z,97670.53
2023-01-17T17:20:19.494Z,97657.69
2023-01-17T17:22:51.905Z,97669.53
2023-01-17T17:25:20.365Z,97676.16
2023-01-17T17:27:48.413Z,97670.53
2023-01-17T17:30:18.591Z,97663.44
2023-01-17T17:32:48.019Z,97660.78
2023-01-17T17:35:16.174Z,97655.84
2023-01-17T17:37:44.154Z,97647.56
2023-01-17T17:40:12.809Z,97649.72
2023-01-17T17:42:40.840Z,97639.63
2023-01-17T17:45:09.488Z,97646.88
2023-01-17T17:47:39.172Z,97644.41
2023-01-17T17:50:08.212Z,97635.59
2023-01-17T17:52:36.172Z,97645.50
2023-01-17T17:55:04.244Z,97640.63
2023-01-17T17:57:32.528Z,97659.69
2023-01-17T18:00:04.836Z,97657.06
2023-01-17T18:02:32.956Z,97638.38
2023-01-17T18:05:03.176Z,97647.00
2023-01-17T18:07:32.469Z,97640.66
2023-01-17T18:10:00.504Z,97648.28
2023-01-17T18:12:29.085Z,97645.34
2023-01-17T18:14:57.108Z,97644.81
2023-01-17T18:17:25.485Z,97643.69
2023-01-17T18:19:53.592Z,97649.13
2023-01-17T18:22:23.260Z,97646.16
2023-01-17T18:24:51.241Z,97638.56
2023-01-17T18:27:19.633Z,97645.00
2023-01-17T18:29:49.284Z,97654.56
2023-01-17T18:32:17.299Z,97642.19
2023-01-17T18:34:45.788Z,97649.59
2023-01-17T18:37:13.987Z,97645.31
2023-01-17T18:39:43.765Z,97650.75
2023-01-17T18:42:12.730Z,97656.50
2023-01-17T18:44:40.787Z,97658.66
2023-01-17T18:47:10.000Z,97652.00
2023-01-17T18:49:38.075Z,97650.13
2023-01-17T18:52:08.033Z,97649.13
2023-01-17T18:54:36.072Z,97655.06
2023-01-17T18:57:05.515Z,97676.50
2023-01-17T18:59:33.537Z,97677.13
2023-01-17T19:02:01.588Z,97674.72
2023-01-17T19:04:31.758Z,97684.16
2023-01-17T19:06:59.899Z,97674.50
2023-01-17T19:09:28.120Z,97670.91
2023-01-17T19:11:57.055Z,97676.19
2023-01-17T19:14:26.435Z,97681.59
2023-01-17T19:16:56.186Z,97680.75
2023-01-17T19:19:24.433Z,97680.75
2023-01-17T19:21:52.867Z,97693.75
2023-01-17T19:24:20.799Z,97693.88
2023-01-17T19:26:51.265Z,97695.38
2023-01-17T19:29:19.390Z,97686.25
2023-01-17T19:31:48.742Z,97674.38
2023-01-17T19:34:19.950Z,97692.25
2023-01-17T19:36:48.328Z,97689.16
2023-01-17T19:39:16.256Z,97697.56
2023-01-17T19:41:46.307Z,97699.13
2023-01-17T19:44:15.717Z,97711.00
2023-01-17T19:46:45.441Z,97725.84
2023-01-17T19:49:19.685Z,97733.41
2023-01-17T19:51:49.592Z,97740.00
2023-01-17T19:54:17.576Z,97740.00
2023-01-17T19:56:45.588Z,97745.78
2023-01-17T19:59:13.776Z,97747.47
2023-01-17T20:01:42.051Z,97751.63
2023-01-17T20:04:10.266Z,97754.84
2023-01-17T20:06:39.666Z,97734.22
2023-01-17T20:09:07.763Z,97735.91
2023-01-17T20:11:35.764Z,97741.19
2023-01-17T20:14:05.557Z,97724.69
2023-01-17T20:16:36.370Z,97730.28
2023-01-17T20:19:04.443Z,97720.41
2023-01-17T20:21:33.151Z,97713.09
2023-01-17T20:24:04.274Z,97735.16
2023-01-17T20:26:35.884Z,97736.81
2023-01-17T20:29:07.475Z,97738.16
2023-01-17T20:31:38.454Z,97733.56
2023-01-17T20:34:08.198Z,97726.69
2023-01-17T20:36:36.977Z,97700.56
2023-01-17T20:39:08.177Z,97707.69
2023-01-17T20:41:38.020Z,97716.25
2023-01-17T20:44:08.630Z,97713.28
2023-01-17T20:46:41.033Z,97716.91
2023-01-17T20:49:13.391Z,97710.97
2023-01-17T20:51:41.874Z,97720.38
2023-01-17T20:54:14.422Z,97702.19
2023-01-17T20:56:43.169Z,97685.97
2023-01-17T20:59:14.711Z,97711.09
2023-01-17T21:01:44.991Z,97711.56
2023-01-17T21:04:14.667Z,97695.22
2023-01-17T21:06:44.178Z,97695.72
2023-01-17T21:09:15.331Z,97709.47
2023-01-17T21:11:43.438Z,97701.81
2023-01-17T21:14:11.411Z,97707.06
2023-01-17T21:16:39.831Z,97712.97
2023-01-17T21:19:09.311Z,97723.75
2023-01-17T21:21:40.447Z,97722.28
2023-01-17T21:24:08.842Z,97723.28
2023-01-17T21:26:39.968Z,97723.78
2023-01-17T21:29:07.997Z,97738.78
2023-01-17T21:31:36.932Z,97723.59
2023-01-17T21:34:06.964Z,97732.47
2023-01-17T21:36:37.216Z,97735.91
2023-01-17T21:39:07.223Z,97735.31
2023-01-17T21:41:37.630Z,97735.38
2023-01-17T21:44:09.913Z,97736.84
2023-01-17T21:46:39.566Z,97729.63
2023-01-17T21:49:10.566Z,97738.88
2023-01-17T21:51:56.619Z,97738.22
2023-01-17T21:54:46.337Z,97734.41
2023-01-17T21:57:33.218Z,97736.06
2023-01-17T22:00:02.782Z,97738.22
2023-01-17T22:02:30.997Z,97735.75
2023-01-17T22:04:59.102Z,97743.66
2023-01-17T22:07:28.750Z,97740.84
2023-01-17T22:09:57.046Z,97742.50
2023-01-17T22:12:25.734Z,97752.41
2023-01-17T22:14:54.467Z,97745.81
2023-01-17T22:17:24.077Z,97757.84
2023-01-17T22:19:52.091Z,97738.38
2023-01-17T22:22:20.127Z,97745.09
2023-01-17T22:24:48.101Z,97730.91
2023-01-17T22:27:16.104Z,97738.53
2023-01-17T22:29:44.344Z,97741.34
2023-01-17T22:32:12.350Z,97741.38
2023-01-17T22:34:41.665Z,97741.03
2023-01-17T22:37:11.388Z,97752.25
2023-01-17T22:39:39.991Z,97745.31
2023-01-17T22:42:08.421Z,97740.84
2023-01-17T22:44:36.388Z,97747.09
2023-01-17T22:47:04.386Z,97741.13
2023-01-17T22:49:32.507Z,97739.97
2023-01-17T22:52:01.944Z,97749.88
2023-01-17T22:54:29.927Z,97733.84
2023-01-17T22:56:58.909Z,97753.81
2023-01-17T22:59:26.912Z,97757.00
2023-01-17T23:01:55.064Z,97753.00
2023-01-17T23:04:23.041Z,97754.34
2023-01-17T23:06:50.998Z,97748.75
2023-01-17T23:09:20.348Z,97749.78
2023-01-17T23:11:52.031Z,97753.06
2023-01-17T23:14:22.374Z,97752.09
2023-01-17T23:17:09.934Z,97754.03
2023-01-17T23:19:39.576Z,97751.06
2023-01-17T23:22:23.172Z,97742.34
2023-01-17T23:24:54.631Z,97753.91
2023-01-17T23:27:41.574Z,97751.59
2023-01-17T23:30:16.477Z,97742.50
2023-01-17T23:32:47.344Z,97743.31
2023-01-17T23:35:15.977Z,97740.53
2023-01-17T23:38:02.325Z,97739.97
2023-01-17T23:40:34.755Z,97724.94
2023-01-17T23:43:20.187Z,97740.13
2023-01-17T23:45:48.447Z,97739.41
2023-01-17T23:48:16.883Z,97734.06
2023-01-17T23:50:47.536Z,97733.38
2023-01-17T23:53:22.518Z,97713.44
2023-01-17T23:55:53.732Z,97728.44
2023-01-17T23:58:23.572Z,97736.88
